Time;durP1;ratioP1;P1;durP2;ratioP2;P2;SDS_P1;SDS_P2;PMS_P1;PMS_P2;Temp;Humidity;BMP_temperature;BMP_pressure;BME280_temperature;BME280_humidity;BME280_pressure;Samples;Min_cycle;Max_cycle;Signal;HPM_P1;HPM_P2
2023/01/09 00:01:16;;;;;;;1.73;1.10;;;8.10;99.90;;;;;;4969715;28;20057;-73
2023/01/09 00:03:42;;;;;;;2.33;1.35;;;8.10;99.90;;;;;;4991091;28;20529;-72
2023/01/09 00:06:13;;;;;;;2.47;1.80;;;8.10;99.90;;;;;;4977160;28;20050;-73
2023/01/09 00:08:39;;;;;;;2.05;1.38;;;8.10;99.90;;;;;;4996466;28;20026;-73
2023/01/09 00:11:05;;;;;;;1.90;1.00;;;8.10;99.90;;;;;;5001339;28;20022;-72
2023/01/09 00:13:31;;;;;;;1.83;1.20;;;8.10;99.90;;;;;;4989825;28;20026;-73
2023/01/09 00:16:04;;;;;;;2.03;1.10;;;8.10;99.90;;;;;;4992475;28;20096;-73
2023/01/09 00:18:34;;;;;;;2.00;1.30;;;8.10;99.90;;;;;;4977822;28;20373;-73
2023/01/09 00:21:01;;;;;;;1.90;1.35;;;8.10;99.90;;;;;;4987447;28;20376;-73
2023/01/09 00:23:30;;;;;;;1.75;1.10;;;8.10;99.90;;;;;;4991137;28;20069;-73
2023/01/09 00:26:09;;;;;;;1.70;0.93;;;8.10;99.90;;;;;;4992845;28;20041;-75
2023/01/09 00:28:35;;;;;;;2.28;1.30;;;8.10;99.90;;;;;;4994076;28;20100;-75
2023/01/09 00:31:03;;;;;;;3.10;1.33;;;8.10;99.90;;;;;;4995957;28;20030;-76
2023/01/09 00:33:44;;;;;;;1.55;0.90;;;8.10;99.90;;;;;;4992261;28;20034;-75
2023/01/09 00:36:10;;;;;;;1.92;1.20;;;8.10;99.90;;;;;;4992395;28;20035;-75
2023/01/09 00:38:39;;;;;;;0.80;0.68;;;8.10;99.90;;;;;;4999702;28;20029;-75
2023/01/09 00:41:08;;;;;;;1.40;0.80;;;8.00;99.90;;;;;;4993236;28;20046;-75
2023/01/09 00:43:41;;;;;;;1.70;0.82;;;8.00;99.90;;;;;;4998168;28;20056;-75
2023/01/09 00:46:07;;;;;;;1.50;0.90;;;8.00;99.90;;;;;;4988103;28;20073;-76
2023/01/09 00:48:44;;;;;;;1.67;0.73;;;8.00;99.90;;;;;;5005623;28;20560;-75
2023/01/09 00:51:18;;;;;;;1.02;0.73;;;8.00;99.90;;;;;;4983481;28;20092;-75
2023/01/09 00:53:44;;;;;;;0.82;0.70;;;8.00;99.90;;;;;;4998752;28;20106;-75
2023/01/09 00:56:17;;;;;;;1.42;0.70;;;8.10;99.90;;;;;;4993444;28;20033;-75
2023/01/09 00:58:43;;;;;;;0.82;0.60;;;8.10;99.90;;;;;;4993509;28;20039;-75
2023/01/09 01:01:08;;;;;;;0.68;0.68;;;8.10;99.90;;;;;;4992010;28;20476;-75
2023/01/09 01:03:34;;;;;;;1.23;0.65;;;8.10;99.90;;;;;;4995034;28;20034;-75
2023/01/09 01:08:54;;;;;;;1.35;0.50;;;8.10;99.90;;;;;;4994512;28;20060;-75
2023/01/09 01:11:20;;;;;;;1.20;0.52;;;8.20;99.90;;;;;;4995734;28;20037;-74
2023/01/09 01:13:46;;;;;;;0.70;0.52;;;8.20;99.90;;;;;;4998056;28;20040;-74
2023/01/09 01:16:12;;;;;;;0.65;0.50;;;8.20;99.90;;;;;;4991690;28;20404;-76
2023/01/09 01:18:39;;;;;;;1.02;0.50;;;8.30;99.90;;;;;;4994523;28;20491;-75
2023/01/09 01:21:08;;;;;;;1.08;0.70;;;8.20;99.90;;;;;;4990665;28;20336;-76
2023/01/09 01:23:35;;;;;;;0.70;0.50;;;8.30;99.90;;;;;;4961646;28;20023;-76
2023/01/09 01:26:06;;;;;;;1.38;0.52;;;8.30;99.90;;;;;;4965930;28;20073;-76
2023/01/09 01:28:32;;;;;;;0.73;0.60;;;8.30;99.90;;;;;;4994009;28;20121;-75
2023/01/09 01:30:58;;;;;;;0.88;0.50;;;8.30;99.90;;;;;;4995155;28;20011;-75
2023/01/09 01:33:23;;;;;;;1.33;0.60;;;8.40;99.90;;;;;;4993694;28;20081;-75
2023/01/09 01:36:18;;;;;;;1.25;0.60;;;8.40;99.90;;;;;;4991256;28;20053;-75
2023/01/09 01:38:45;;;;;;;1.10;0.50;;;8.30;99.90;;;;;;4993148;28;20041;-75
2023/01/09 01:41:11;;;;;;;0.70;0.30;;;8.40;99.90;;;;;;4985697;28;20026;-76
2023/01/09 01:44:00;;;;;;;0.52;0.40;;;8.40;99.90;;;;;;5001539;28;20038;-76
2023/01/09 01:46:27;;;;;;;1.05;0.40;;;8.40;99.90;;;;;;5000660;28;20447;-74
2023/01/09 01:49:01;;;;;;;0.70;0.32;;;8.40;99.90;;;;;;4984754;28;20502;-76
2023/01/09 01:51:33;;;;;;;0.65;0.28;;;8.40;99.90;;;;;;4992181;28;20023;-76
2023/01/09 01:54:11;;;;;;;0.52;0.30;;;8.40;99.90;;;;;;4993622;28;20033;-76
2023/01/09 01:56:52;;;;;;;0.50;0.40;;;8.40;99.90;;;;;;5001023;28;20034;-75
2023/01/09 01:59:35;;;;;;;0.95;0.60;;;8.40;99.90;;;;;;4998027;28;20031;-75
2023/01/09 02:02:02;;;;;;;0.45;0.30;;;8.30;99.90;;;;;;4981294;28;20137;-75
2023/01/09 02:04:30;;;;;;;1.15;0.40;;;8.40;99.90;;;;;;4991155;28;20026;-75
2023/01/09 02:06:59;;;;;;;1.77;0.28;;;8.40;99.90;;;;;;5001469;28;21018;-76
2023/01/09 02:09:25;;;;;;;0.93;0.40;;;8.30;99.90;;;;;;4999225;28;20038;-75
2023/01/09 02:12:00;;;;;;;1.85;0.30;;;8.30;99.90;;;;;;4984039;28;20541;-75
2023/01/09 02:14:30;;;;;;;0.40;0.30;;;8.30;99.90;;;;;;4997384;28;20022;-75
2023/01/09 02:17:19;;;;;;;0.25;0.20;;;8.20;99.90;;;;;;4988157;28;20475;-76
2023/01/09 02:20:15;;;;;;;0.60;0.30;;;8.20;99.90;;;;;;4973363;28;20101;-73
2023/01/09 02:22:51;;;;;;;0.65;0.22;;;8.20;99.90;;;;;;4997380;28;20030;-75
2023/01/09 02:25:30;;;;;;;0.20;0.20;;;8.10;99.90;;;;;;4988843;28;20033;-76
2023/01/09 02:28:16;;;;;;;0.77;0.40;;;8.10;99.90;;;;;;4991072;28;20031;-75
2023/01/09 02:30:56;;;;;;;0.80;0.30;;;8.10;99.90;;;;;;4988550;28;20036;-75
2023/01/09 02:33:37;;;;;;;0.98;0.30;;;8.10;99.90;;;;;;4989796;28;20030;-75
2023/01/09 02:36:16;;;;;;;0.60;0.35;;;8.10;99.90;;;;;;4989831;28;20030;-75
2023/01/09 02:39:03;;;;;;;0.85;0.30;;;8.10;99.90;;;;;;4992005;28;20424;-75
2023/01/09 02:41:51;;;;;;;0.55;0.32;;;8.10;99.90;;;;;;4991554;28;20030;-75
2023/01/09 02:44:28;;;;;;;0.25;0.20;;;8.10;99.90;;;;;;4994980;28;20383;-76
2023/01/09 02:47:19;;;;;;;0.70;0.47;;;8.10;99.90;;;;;;4995548;28;20134;-74
2023/01/09 02:49:52;;;;;;;0.35;0.30;;;8.10;99.90;;;;;;4993358;28;20026;-75
2023/01/09 02:52:54;;;;;;;0.32;0.30;;;8.00;99.90;;;;;;4992691;28;20510;-75
2023/01/09 02:55:54;;;;;;;1.05;0.40;;;8.10;99.90;;;;;;4997152;28;20137;-75
2023/01/09 02:58:51;;;;;;;0.70;0.40;;;8.00;99.90;;;;;;4981247;28;20046;-75
2023/01/09 03:01:48;;;;;;;0.30;0.20;;;8.10;99.90;;;;;;5001163;28;20053;-75
2023/01/09 03:04:37;;;;;;;2.08;0.30;;;8.00;99.90;;;;;;4993030;28;20050;-75
2023/01/09 03:07:29;;;;;;;1.38;0.50;;;8.00;99.90;;;;;;4967865;28;20033;-76
2023/01/09 03:10:11;;;;;;;2.53;0.30;;;8.00;99.90;;;;;;5002287;28;20033;-75
2023/01/09 03:12:39;;;;;;;0.68;0.20;;;8.00;99.90;;;;;;5012832;28;20390;-75
2023/01/09 03:15:10;;;;;;;0.40;0.30;;;7.90;99.90;;;;;;4987892;28;20069;-75
2023/01/09 03:17:46;;;;;;;0.40;0.40;;;7.90;99.90;;;;;;4982420;28;20399;-75
2023/01/09 03:20:15;;;;;;;0.55;0.30;;;7.80;99.90;;;;;;4992124;28;20026;-74
2023/01/09 03:22:58;;;;;;;0.43;0.20;;;7.80;99.90;;;;;;4994901;28;20019;-76
2023/01/09 03:25:27;;;;;;;0.10;0.10;;;7.70;99.90;;;;;;4971959;28;20031;-76
2023/01/09 03:28:07;;;;;;;0.32;0.15;;;7.60;99.90;;;;;;4974584;28;20105;-76
2023/01/09 03:30:35;;;;;;;0.43;0.17;;;7.60;99.90;;;;;;4992940;28;20022;-76
2023/01/09 03:33:01;;;;;;;1.35;0.30;;;7.50;99.90;;;;;;4989102;28;20034;-76
2023/01/09 03:35:27;;;;;;;0.40;0.20;;;7.50;99.90;;;;;;4987159;28;20384;-74
2023/01/09 03:37:53;;;;;;;0.30;0.20;;;7.50;99.90;;;;;;4989534;28;20383;-75
2023/01/09 03:40:20;;;;;;;0.40;0.20;;;7.50;99.90;;;;;;4989112;28;20466;-74
2023/01/09 03:42:46;;;;;;;0.63;0.20;;;7.50;99.90;;;;;;4985624;28;20089;-76
2023/01/09 03:45:12;;;;;;;1.20;0.25;;;7.40;99.90;;;;;;4988711;28;20026;-75
2023/01/09 03:47:38;;;;;;;0.10;0.10;;;7.40;99.90;;;;;;4987547;28;20025;-76
2023/01/09 03:50:05;;;;;;;0.10;0.10;;;7.30;99.90;;;;;;4971510;28;20483;-75
2023/01/09 03:52:30;;;;;;;0.20;0.20;;;7.30;99.90;;;;;;4970535;28;20081;-76
2023/01/09 03:54:56;;;;;;;0.20;0.10;;;7.30;99.90;;;;;;4971537;28;20680;-76
2023/01/09 03:57:23;;;;;;;3.30;0.10;;;7.30;99.90;;;;;;4988976;28;20073;-75
2023/01/09 03:59:48;;;;;;;1.65;0.20;;;7.30;99.90;;;;;;4988536;28;20096;-75
2023/01/09 04:02:14;;;;;;;0.60;0.10;;;7.30;99.90;;;;;;4972496;28;20058;-75
2023/01/09 04:04:45;;;;;;;0.10;0.10;;;7.30;99.90;;;;;;4990289;28;20498;-74
2023/01/09 04:07:17;;;;;;;0.25;0.10;;;7.30;99.90;;;;;;4985956;28;20036;-74
2023/01/09 04:09:42;;;;;;;0.28;0.20;;;7.20;99.90;;;;;;4989281;28;20037;-76
2023/01/09 04:12:08;;;;;;;1.38;0.20;;;7.30;99.90;;;;;;4992376;28;20030;-76
2023/01/09 04:14:34;;;;;;;0.50;0.20;;;7.30;99.90;;;;;;4991221;28;20093;-76
2023/01/09 04:17:02;;;;;;;0.10;0.10;;;7.20;99.90;;;;;;4972497;28;20038;-76
2023/01/09 04:19:30;;;;;;;0.40;0.13;;;7.30;99.90;;;;;;4986485;28;20105;-75
2023/01/09 04:21:59;;;;;;;1.98;0.63;;;7.30;99.90;;;;;;4993494;28;20054;-76
2023/01/09 04:24:25;;;;;;;0.15;0.13;;;7.20;99.90;;;;;;4993596;28;20134;-76
2023/01/09 04:26:50;;;;;;;0.50;0.20;;;7.20;99.90;;;;;;4988696;28;20026;-75
2023/01/09 04:29:16;;;;;;;0.55;0.20;;;7.30;99.90;;;;;;4995183;28;20034;-76
2023/01/09 04:31:45;;;;;;;0.17;0.10;;;7.30;99.90;;;;;;4995159;28;20503;-77
2023/01/09 04:34:10;;;;;;;0.73;0.10;;;7.30;99.90;;;;;;4997121;28;20037;-76
2023/01/09 04:36:36;;;;;;;0.17;0.10;;;7.30;99.90;;;;;;4996179;28;20034;-76
2023/01/09 04:39:02;;;;;;;1.77;0.10;;;7.20;99.90;;;;;;4990493;28;20030;-77
2023/01/09 04:44:12;;;;;;;;;;;7.20;99.90;;;;;;4990432;28;20040;-74
2023/01/09 04:46:37;;;;;;;0.20;0.10;;;7.10;99.90;;;;;;4973062;28;19909;-74
2023/01/09 04:49:03;;;;;;;0.35;0.10;;;7.10;99.90;;;;;;4991381;28;20573;-74
2023/01/09 04:51:29;;;;;;;0.10;0.10;;;7.10;99.90;;;;;;4987881;28;20038;-77
2023/01/09 04:53:54;;;;;;;0.30;0.10;;;7.00;99.90;;;;;;4993042;28;20037;-74
2023/01/09 04:56:25;;;;;;;0.20;0.10;;;7.00;99.90;;;;;;4992405;28;20527;-74
2023/01/09 04:58:54;;;;;;;0.30;0.17;;;6.90;99.90;;;;;;4989715;28;20084;-75
2023/01/09 05:01:20;;;;;;;1.30;0.40;;;6.80;99.90;;;;;;4990247;28;20022;-74
2023/01/09 05:03:45;;;;;;;0.68;0.30;;;6.80;99.90;;;;;;4991324;28;20074;-74
2023/01/09 05:06:11;;;;;;;0.10;0.10;;;6.80;99.90;;;;;;4987347;28;20022;-73
2023/01/09 05:08:37;;;;;;;1.15;0.20;;;6.80;99.90;;;;;;4996515;28;20105;-76
2023/01/09 05:11:03;;;;;;;1.08;0.30;;;6.70;99.90;;;;;;4993064;28;20030;-74
2023/01/09 05:13:31;;;;;;;0.10;0.10;;;6.70;99.90;;;;;;4991626;28;20121;-77
2023/01/09 05:15:57;;;;;;;0.38;0.20;;;6.60;99.90;;;;;;4992674;28;20554;-74
2023/01/09 05:18:25;;;;;;;0.00;0.00;;;6.50;99.90;;;;;;4972473;28;20030;-76
2023/01/09 05:20:51;;;;;;;0.28;0.10;;;6.50;99.90;;;;;;4989408;28;20081;-75
2023/01/09 05:23:16;;;;;;;0.10;0.10;;;6.50;99.90;;;;;;4992790;28;20030;-74
2023/01/09 05:25:45;;;;;;;0.38;0.20;;;6.50;99.90;;;;;;4995600;28;20497;-74
2023/01/09 05:28:11;;;;;;;0.40;0.20;;;6.40;99.90;;;;;;4972519;28;20022;-77
2023/01/09 05:30:46;;;;;;;0.40;0.20;;;6.40;99.90;;;;;;4991932;28;20073;-72
2023/01/09 05:33:15;;;;;;;1.75;0.20;;;6.40;99.90;;;;;;4976074;28;20120;-75
2023/01/09 05:35:46;;;;;;;0.22;0.20;;;6.40;99.90;;;;;;4991032;28;20034;-77
2023/01/09 05:38:12;;;;;;;0.65;0.25;;;6.40;99.90;;;;;;4988987;28;20034;-74
2023/01/09 05:40:38;;;;;;;2.72;0.98;;;6.40;99.90;;;;;;4972845;28;20049;-75
2023/01/09 05:43:03;;;;;;;1.45;0.50;;;6.40;99.90;;;;;;4989899;28;20019;-74
2023/01/09 05:45:32;;;;;;;1.35;0.30;;;6.30;99.90;;;;;;4991809;28;20085;-73
2023/01/09 05:47:58;;;;;;;3.08;0.52;;;6.30;99.90;;;;;;4991256;28;20099;-73
2023/01/09 05:50:26;;;;;;;1.33;0.40;;;6.30;99.90;;;;;;4990525;28;20113;-74
2023/01/09 05:52:52;;;;;;;0.80;0.30;;;6.30;99.90;;;;;;4987646;28;20054;-75
2023/01/09 05:55:18;;;;;;;6.25;0.85;;;6.20;99.90;;;;;;4990182;28;20112;-74
2023/01/09 05:57:46;;;;;;;1.75;0.40;;;6.20;99.90;;;;;;4993391;28;20502;-73
2023/01/09 06:00:12;;;;;;;0.40;0.40;;;6.20;99.90;;;;;;4991181;28;20038;-74
2023/01/09 06:02:38;;;;;;;1.10;0.52;;;6.20;99.90;;;;;;4987466;28;20379;-74
2023/01/09 06:05:08;;;;;;;2.05;0.85;;;6.20;99.90;;;;;;4985422;28;20018;-75
2023/01/09 06:07:38;;;;;;;0.50;0.30;;;6.20;99.90;;;;;;4988017;28;20018;-75
2023/01/09 06:10:13;;;;;;;0.50;0.20;;;6.20;99.90;;;;;;4988287;28;20030;-75
2023/01/09 06:12:40;;;;;;;0.35;0.30;;;6.20;99.90;;;;;;4993804;28;20447;-74
2023/01/09 06:15:14;;;;;;;1.75;0.20;;;6.20;99.90;;;;;;4975524;28;20282;-75
2023/01/09 06:17:40;;;;;;;1.10;0.25;;;6.10;99.90;;;;;;4993099;28;20030;-75
2023/01/09 06:20:06;;;;;;;0.70;0.30;;;6.10;99.90;;;;;;4975287;28;20034;-75
2023/01/09 06:22:32;;;;;;;1.05;0.30;;;6.10;99.90;;;;;;4978511;28;20114;-75
2023/01/09 06:24:57;;;;;;;1.75;0.30;;;6.10;99.90;;;;;;4988450;22;20090;-77
2023/01/09 06:27:23;;;;;;;1.05;0.20;;;6.10;99.90;;;;;;4991795;28;20053;-69
2023/01/09 06:29:52;;;;;;;0.70;0.40;;;6.10;99.90;;;;;;4976909;28;20498;-71
2023/01/09 06:32:17;;;;;;;1.95;0.30;;;6.10;99.90;;;;;;4975754;28;20479;-77
2023/01/09 06:34:43;;;;;;;2.17;0.35;;;6.10;99.90;;;;;;4995966;28;20033;-77
2023/01/09 06:37:09;;;;;;;1.15;0.38;;;6.10;99.90;;;;;;4976264;28;20084;-78
2023/01/09 06:39:41;;;;;;;5.93;0.75;;;6.10;99.90;;;;;;4989425;28;20034;-73
2023/01/09 06:42:07;;;;;;;1.83;0.28;;;6.10;99.90;;;;;;4992119;28;20077;-78
2023/01/09 06:44:35;;;;;;;0.35;0.22;;;6.10;99.90;;;;;;4995142;28;20441;-76
2023/01/09 06:47:04;;;;;;;3.10;0.45;;;6.10;99.90;;;;;;4987910;28;20445;-77
2023/01/09 06:49:29;;;;;;;1.20;0.40;;;6.10;99.90;;;;;;4992092;28;20026;-77
2023/01/09 06:51:55;;;;;;;4.90;0.52;;;6.10;99.90;;;;;;4991625;28;20030;-75
2023/01/09 06:54:21;;;;;;;1.23;0.50;;;6.10;99.90;;;;;;4990040;28;20129;-76
2023/01/09 06:56:47;;;;;;;1.70;0.45;;;6.00;99.90;;;;;;4979816;28;20387;-78
2023/01/09 06:59:12;;;;;;;1.00;0.32;;;6.10;99.90;;;;;;4991936;28;20028;-76
2023/01/09 07:01:38;;;;;;;1.45;0.40;;;6.00;99.90;;;;;;4984981;28;20897;-75
2023/01/09 07:04:11;;;;;;;1.33;0.57;;;6.10;99.90;;;;;;4987602;28;20026;-76
2023/01/09 07:06:36;;;;;;;1.75;0.38;;;6.10;99.90;;;;;;4988676;28;20037;-75
2023/01/09 07:09:04;;;;;;;0.90;0.30;;;6.00;99.90;;;;;;4988104;28;20092;-76
2023/01/09 07:11:30;;;;;;;2.30;0.50;;;6.10;99.90;;;;;;4980375;28;20042;-76
2023/01/09 07:13:59;;;;;;;1.52;0.60;;;6.10;99.90;;;;;;4987843;28;22311;-78
2023/01/09 07:16:37;;;;;;;2.00;0.68;;;6.10;99.90;;;;;;4973520;28;20041;-78
2023/01/09 07:19:02;;;;;;;3.35;0.55;;;6.10;99.90;;;;;;4985758;28;20113;-76
2023/01/09 07:21:28;;;;;;;7.70;4.10;;;6.10;99.90;;;;;;4986488;28;20109;-76
2023/01/09 07:23:54;;;;;;;5.07;1.10;;;6.10;99.90;;;;;;4987904;28;20458;-76
2023/01/09 07:26:19;;;;;;;4.32;0.60;;;6.00;99.90;;;;;;4986030;28;20375;-76
2023/01/09 07:28:45;;;;;;;1.70;0.50;;;6.10;99.90;;;;;;4990271;28;20042;-74
2023/01/09 07:31:10;;;;;;;2.15;0.50;;;6.10;99.90;;;;;;4989462;28;20116;-76
2023/01/09 07:33:48;;;;;;;1.73;0.70;;;6.10;99.90;;;;;;4987824;28;20019;-77
2023/01/09 07:36:14;;;;;;;2.15;0.90;;;6.10;99.90;;;;;;4988826;28;20038;-77
2023/01/09 07:38:40;;;;;;;4.55;0.60;;;6.10;99.90;;;;;;4970497;28;20022;-76
2023/01/09 07:41:05;;;;;;;6.57;0.80;;;6.10;99.90;;;;;;4989253;28;20030;-77
2023/01/09 07:43:35;;;;;;;2.78;0.50;;;6.10;99.90;;;;;;4990494;28;20026;-76
2023/01/09 07:46:13;;;;;;;1.85;0.47;;;6.20;99.90;;;;;;4991584;28;20117;-76
2023/01/09 07:48:42;;;;;;;5.00;0.75;;;6.20;99.90;;;;;;4991129;28;20038;-76
2023/01/09 07:51:11;;;;;;;4.85;0.80;;;6.20;99.90;;;;;;4992350;28;20560;-77
2023/01/09 07:53:40;;;;;;;3.33;0.63;;;6.20;99.90;;;;;;4989602;28;20022;-76
2023/01/09 07:56:06;;;;;;;1.23;0.38;;;6.30;99.90;;;;;;4990785;28;20395;-77
2023/01/09 07:58:40;;;;;;;3.95;0.52;;;6.30;99.90;;;;;;4992654;28;20022;-77
2023/01/09 08:01:06;;;;;;;4.63;0.82;;;6.30;99.90;;;;;;4973156;28;20042;-77
2023/01/09 08:03:40;;;;;;;2.28;0.30;;;6.30;99.90;;;;;;4973262;28;20018;-74
2023/01/09 08:06:06;;;;;;;1.83;0.50;;;6.30;99.90;;;;;;4978491;28;20007;-76
2023/01/09 08:08:32;;;;;;;2.97;0.50;;;6.30;99.90;;;;;;4993884;28;20023;-77
2023/01/09 08:10:58;;;;;;;2.20;0.70;;;6.30;99.90;;;;;;4993537;28;20026;-73
2023/01/09 08:13:23;;;;;;;1.75;0.45;;;6.30;99.90;;;;;;4977489;28;20026;-75
2023/01/09 08:15:49;;;;;;;3.60;0.93;;;6.30;99.90;;;;;;4994115;28;20022;-77
2023/01/09 08:18:15;;;;;;;2.13;0.80;;;6.20;99.90;;;;;;4996651;28;20042;-77
2023/01/09 08:20:49;;;;;;;4.35;0.70;;;6.30;99.90;;;;;;4998804;28;20115;-76
2023/01/09 08:23:15;;;;;;;2.22;0.82;;;6.20;99.90;;;;;;4994766;28;20594;-77
2023/01/09 08:25:40;;;;;;;1.55;0.60;;;6.20;99.90;;;;;;4996466;28;20034;-77
2023/01/09 08:28:08;;;;;;;2.47;0.70;;;6.20;99.90;;;;;;4994202;28;20093;-75
2023/01/09 08:30:36;;;;;;;4.40;1.00;;;6.20;99.90;;;;;;4993733;28;20113;-78
2023/01/09 08:33:02;;;;;;;2.90;0.65;;;6.20;99.90;;;;;;4976442;28;20459;-77
2023/01/09 08:35:31;;;;;;;4.35;0.70;;;6.10;99.90;;;;;;4995746;28;20038;-75
2023/01/09 08:37:56;;;;;;;2.85;0.63;;;6.10;99.90;;;;;;4993190;28;20109;-77
2023/01/09 08:40:22;;;;;;;2.78;0.50;;;6.10;99.90;;;;;;4984950;28;20054;-75
2023/01/09 08:48:22;;;;;;;2.28;0.55;;;6.10;99.90;;;;;;4996549;28;20054;-78
2023/01/09 08:50:47;;;;;;;10.20;1.02;;;6.10;99.90;;;;;;4993720;28;20034;-77
2023/01/09 08:53:14;;;;;;;6.90;0.88;;;6.10;99.90;;;;;;4994378;28;20084;-76
2023/01/09 08:55:43;;;;;;;4.15;0.50;;;6.10;99.90;;;;;;4994164;28;20084;-76
2023/01/09 08:58:08;;;;;;;3.72;0.50;;;6.10;99.90;;;;;;4980857;28;20413;-77
2023/01/09 09:00:34;;;;;;;3.45;0.80;;;6.10;99.90;;;;;;4987729;28;20058;-75
2023/01/09 09:03:00;;;;;;;5.05;1.10;;;6.20;99.90;;;;;;4995454;28;20403;-78
2023/01/09 09:05:28;;;;;;;2.22;0.50;;;6.20;99.90;;;;;;4996490;28;20437;-76
2023/01/09 09:07:54;;;;;;;6.65;1.30;;;6.30;99.90;;;;;;4995156;28;20034;-77
2023/01/09 09:10:22;;;;;;;3.35;0.52;;;6.30;99.90;;;;;;4974501;28;20030;-77
2023/01/09 09:12:50;;;;;;;3.17;0.50;;;6.40;99.90;;;;;;4988999;28;20104;-75
2023/01/09 09:15:22;;;;;;;5.97;1.30;;;6.40;99.90;;;;;;4993498;28;20030;-76
2023/01/09 09:17:50;;;;;;;4.03;0.70;;;6.50;99.90;;;;;;4976481;28;20113;-78
2023/01/09 09:20:16;;;;;;;2.85;0.80;;;6.60;99.90;;;;;;4989247;28;20038;-76
2023/01/09 09:22:41;;;;;;;3.05;0.80;;;6.60;99.90;;;;;;4992842;28;20442;-75
2023/01/09 09:25:07;;;;;;;4.28;1.10;;;6.70;99.90;;;;;;4980007;28;20241;-77
2023/01/09 09:27:35;;;;;;;5.70;1.13;;;6.70;99.90;;;;;;4995149;28;20069;-77
2023/01/09 09:30:01;;;;;;;5.88;1.20;;;6.80;99.90;;;;;;4981076;28;20093;-77
2023/01/09 09:32:26;;;;;;;1.85;0.40;;;6.90;99.90;;;;;;4982986;28;20028;-77
2023/01/09 09:34:52;;;;;;;2.92;1.00;;;6.90;99.90;;;;;;4993186;28;20022;-76
2023/01/09 09:37:18;;;;;;;4.22;0.95;;;7.00;99.90;;;;;;4990899;28;20034;-74
2023/01/09 09:39:43;;;;;;;3.17;0.85;;;7.00;99.90;;;;;;4993825;28;20495;-77
2023/01/09 09:45:00;;;;;;;5.18;0.77;;;7.10;99.90;;;;;;4994460;28;20065;-76
2023/01/09 09:47:52;;;;;;;4.72;0.98;;;7.20;99.90;;;;;;4975904;28;20026;-76
2023/01/09 09:50:40;;;;;;;2.55;0.70;;;7.20;99.90;;;;;;4973554;28;20541;-77
2023/01/09 09:53:12;;;;;;;3.90;0.80;;;7.20;99.90;;;;;;4995965;28;20060;-77
2023/01/09 09:55:40;;;;;;;3.15;0.52;;;7.20;99.90;;;;;;4989601;28;20045;-77
2023/01/09 09:58:28;;;;;;;4.32;0.55;;;7.30;99.90;;;;;;4974155;28;20030;-77
2023/01/09 10:00:56;;;;;;;1.88;0.75;;;7.40;99.90;;;;;;4993271;28;20053;-76
2023/01/09 10:04:07;;;;;;;1.60;0.68;;;7.40;99.90;;;;;;4992693;28;20061;-76
2023/01/09 10:06:43;;;;;;;3.00;1.17;;;7.60;99.90;;;;;;4912399;29;20051;-77
2023/01/09 10:09:20;;;;;;;3.55;0.80;;;7.70;99.90;;;;;;4983645;28;20049;-77
2023/01/09 10:12:02;;;;;;;2.28;0.45;;;7.70;99.90;;;;;;4978490;28;20022;-76
2023/01/09 10:14:29;;;;;;;3.25;0.50;;;7.80;99.90;;;;;;4972490;28;20031;-77
2023/01/09 10:17:14;;;;;;;4.47;0.65;;;7.80;99.90;;;;;;4974804;28;20038;-77
2023/01/09 10:20:07;;;;;;;4.53;0.80;;;7.80;99.90;;;;;;4979032;28;20467;-77
2023/01/09 10:22:33;;;;;;;2.72;0.93;;;7.90;99.90;;;;;;4989551;28;20101;-76
2023/01/09 10:25:10;;;;;;;5.45;0.85;;;8.00;99.90;;;;;;4992942;28;20303;-77
2023/01/09 10:27:51;;;;;;;7.05;0.60;;;8.10;99.90;;;;;;4987647;28;20096;-76
2023/01/09 10:30:39;;;;;;;5.80;0.70;;;8.10;99.90;;;;;;4990361;28;20039;-77
2023/01/09 10:33:20;;;;;;;4.50;0.95;;;8.20;99.90;;;;;;4996758;28;20158;-76
2023/01/09 10:35:46;;;;;;;7.60;1.33;;;8.30;99.90;;;;;;4989677;28;20045;-76
2023/01/09 10:38:19;;;;;;;3.08;0.70;;;8.40;99.90;;;;;;4993886;28;20125;-78
2023/01/09 10:40:58;;;;;;;5.18;0.93;;;8.40;99.90;;;;;;4976698;28;20026;-76
2023/01/09 10:43:44;;;;;;;3.72;0.65;;;8.50;99.90;;;;;;4990511;28;20026;-77
2023/01/09 10:46:26;;;;;;;4.97;1.05;;;8.50;99.90;;;;;;4972903;28;20034;-76
2023/01/09 10:48:58;;;;;;;3.50;0.60;;;8.50;99.90;;;;;;4993230;28;20479;-77
2023/01/09 10:51:44;;;;;;;6.15;1.08;;;8.40;99.90;;;;;;4991595;28;20045;-78
2023/01/09 10:54:14;;;;;;;10.15;2.22;;;8.50;99.90;;;;;;4990067;28;20030;-77
2023/01/09 10:56:44;;;;;;;3.28;0.70;;;8.40;99.90;;;;;;4973540;28;20027;-76
2023/01/09 10:59:10;;;;;;;5.30;0.90;;;8.40;99.90;;;;;;4986525;28;20034;-77
2023/01/09 11:01:38;;;;;;;3.85;0.85;;;8.50;99.90;;;;;;4987717;28;20048;-76
2023/01/09 11:04:24;;;;;;;4.80;0.60;;;8.50;99.90;;;;;;4976266;28;20033;-77
2023/01/09 11:07:14;;;;;;;5.75;1.08;;;8.50;99.90;;;;;;4992557;28;20041;-77
2023/01/09 11:10:14;;;;;;;2.40;0.95;;;8.50;99.90;;;;;;4993563;28;20026;-78
2023/01/09 11:12:40;;;;;;;5.95;0.98;;;8.50;99.90;;;;;;4978244;28;20035;-78
2023/01/09 11:15:27;;;;;;;7.40;1.25;;;8.50;99.90;;;;;;4993786;28;20151;-77
2023/01/09 11:17:55;;;;;;;1.95;0.75;;;8.40;99.90;;;;;;4976779;28;20026;-78
2023/01/09 11:20:21;;;;;;;9.13;1.00;;;8.40;99.90;;;;;;4991447;28;20037;-78
2023/01/09 11:22:49;;;;;;;9.32;1.80;;;8.40;99.90;;;;;;4993582;28;20026;-77
2023/01/09 11:25:18;;;;;;;7.25;1.35;;;8.40;99.90;;;;;;4976379;28;20031;-77
2023/01/09 11:28:02;;;;;;;5.47;1.10;;;8.40;99.90;;;;;;4990200;28;20053;-77
2023/01/09 11:30:28;;;;;;;;;;;8.40;99.90;;;;;;4994179;28;20027;-77
2023/01/09 11:32:56;;;;;;;3.83;1.17;;;8.40;99.90;;;;;;4994902;28;20393;-78
2023/01/09 11:35:32;;;;;;;3.13;0.77;;;8.50;99.90;;;;;;4995697;28;20105;-78
2023/01/09 11:38:28;;;;;;;5.40;1.05;;;8.50;99.90;;;;;;4995160;28;20042;-77
2023/01/09 11:41:03;;;;;;;6.53;1.02;;;8.60;99.90;;;;;;4965351;28;20076;-77
2023/01/09 11:43:38;;;;;;;4.78;1.08;;;8.70;99.90;;;;;;4995603;28;20149;-78
2023/01/09 11:46:11;;;;;;;3.67;0.75;;;8.70;99.90;;;;;;4999093;28;20026;-77
2023/01/09 11:48:58;;;;;;;4.28;1.05;;;8.80;99.90;;;;;;4999739;28;20210;-76
2023/01/09 11:51:30;;;;;;;6.60;1.10;;;8.90;99.90;;;;;;4995198;28;20088;-77
2023/01/09 11:54:19;;;;;;;6.25;1.48;;;9.00;99.90;;;;;;5001933;28;20023;-78
2023/01/09 11:56:46;;;;;;;6.05;1.10;;;9.00;99.90;;;;;;4996542;28;20431;-78
2023/01/09 11:59:15;;;;;;;7.75;1.00;;;9.10;99.90;;;;;;4998084;28;20028;-78
2023/01/09 12:02:22;;;;;;;5.03;0.85;;;9.10;99.90;;;;;;4985175;28;20060;-78
2023/01/09 12:05:04;;;;;;;5.55;0.70;;;9.10;99.90;;;;;;4936310;28;20035;-78
2023/01/09 12:07:50;;;;;;;4.32;0.63;;;9.20;99.90;;;;;;5000102;28;20030;-76
2023/01/09 12:11:00;;;;;;;4.80;0.73;;;9.30;99.90;;;;;;4999708;28;20034;-78
2023/01/09 12:14:06;;;;;;;4.45;1.25;;;9.30;99.90;;;;;;4981381;28;20021;-78
2023/01/09 12:16:40;;;;;;;3.58;0.80;;;9.40;99.90;;;;;;4979037;28;20548;-78
2023/01/09 12:19:19;;;;;;;;;;;9.40;99.90;;;;;;4998534;28;20452;-78
2023/01/09 12:22:05;;;;;;;8.70;0.98;;;9.40;99.90;;;;;;4999486;28;19909;-78
2023/01/09 12:24:59;;;;;;;2.22;0.70;;;9.50;99.90;;;;;;4998075;28;20387;-77
2023/01/09 12:27:24;;;;;;;6.00;0.77;;;9.50;99.90;;;;;;4992926;28;20092;-78
2023/01/09 12:29:57;;;;;;;3.90;1.00;;;9.50;99.90;;;;;;5000969;28;20506;-79
2023/01/09 12:32:47;;;;;;;3.65;0.85;;;9.50;99.90;;;;;;4997018;28;20089;-79
2023/01/09 12:35:39;;;;;;;2.28;0.70;;;9.40;99.90;;;;;;4997736;28;20026;-79
2023/01/09 12:38:26;;;;;;;3.83;1.17;;;9.40;99.90;;;;;;4995723;28;20386;-79
2023/01/09 12:41:31;;;;;;;5.38;0.95;;;9.40;99.90;;;;;;4999708;28;20026;-80
2023/01/09 12:44:15;;;;;;;;;;;9.30;99.90;;;;;;4995730;28;20501;-80
2023/01/09 12:46:49;;;;;;;2.72;0.65;;;9.40;99.90;;;;;;4990494;28;19917;-80
2023/01/09 12:49:29;;;;;;;6.07;1.08;;;9.30;99.90;;;;;;4981522;28;20034;-78
2023/01/09 12:52:23;;;;;;;4.28;0.77;;;9.30;99.90;;;;;;4982085;28;20037;-80
2023/01/09 12:55:00;;;;;;;4.55;0.70;;;9.20;99.90;;;;;;4994468;28;20412;-80
2023/01/09 12:57:37;;;;;;;1.13;0.40;;;9.20;99.90;;;;;;5000827;28;20058;-79
2023/01/09 13:00:24;;;;;;;3.15;0.50;;;9.20;99.90;;;;;;4981775;28;20034;-78
2023/01/09 13:02:56;;;;;;;3.08;1.17;;;9.10;99.90;;;;;;4994705;28;20031;-79
2023/01/09 13:05:46;;;;;;;3.38;0.70;;;9.00;99.90;;;;;;5000309;28;20491;-80
2023/01/09 13:08:32;;;;;;;2.60;0.50;;;9.00;99.90;;;;;;5001297;28;20026;-79
2023/01/09 13:11:11;;;;;;;2.58;0.52;;;8.90;99.90;;;;;;5002728;28;20030;-79
2023/01/09 13:13:57;;;;;;;1.65;0.40;;;8.80;99.90;;;;;;4999646;28;20522;-78
2023/01/09 13:16:40;;;;;;;1.45;0.50;;;8.70;99.90;;;;;;4998716;28;20491;-79
2023/01/09 13:19:21;;;;;;;0.60;0.35;;;8.60;99.90;;;;;;4998290;28;20030;-79
2023/01/09 13:21:47;;;;;;;2.20;0.40;;;8.50;99.90;;;;;;4997866;28;20041;-78
2023/01/09 13:24:37;;;;;;;0.90;0.50;;;8.50;99.90;;;;;;4998283;28;20023;-78
2023/01/09 13:27:16;;;;;;;2.55;0.50;;;8.40;99.90;;;;;;5000571;28;20049;-79
2023/01/09 13:29:47;;;;;;;1.80;0.73;;;8.40;99.90;;;;;;4998768;28;20479;-78
2023/01/09 13:32:30;;;;;;;1.77;0.70;;;8.30;99.90;;;;;;4981009;28;20034;-79
2023/01/09 13:34:57;;;;;;;1.63;0.60;;;8.30;99.90;;;;;;4992784;28;20026;-78
2023/01/09 13:37:35;;;;;;;3.05;1.05;;;8.20;99.90;;;;;;4975282;28;20042;-77
2023/01/09 13:40:19;;;;;;;1.13;0.55;;;8.20;99.90;;;;;;4983033;28;20513;-77